Detalii statie SCHWAB AGRO ARDUD [00001CF5]

Toti senzorii

Date Temperatura solului [C]Precipitatii [mm]Voltaj baterie [mV]Leaf Wetness [Min]HC Air temperature [C]HC Relative humidity [%]Punctul de roua [C]
medieminmaxsumaultimatimpmedieminmaxmediemediemin
2019-08-15 21:00:00 0 6864 17.57 16.98 18 100 17.5 16.9
2019-08-15 22:00:00 0 6844 16.26 15.53 16.82 100 16.2 15.5
2019-08-15 23:00:00 0 6854 14.81 14.39 15.1 100 14.7 14.3
2019-08-16 00:00:00 0 6834 13.69 13.15 14.37 100 13.6 13.1
2019-08-16 01:00:00 0 6826 12.72 12.17 13.24 100 12.7 12.1
2019-08-16 02:00:00 0 6834 11.78 11.6 12.1 100 11.7 11.6
2019-08-16 03:00:00 0 6834 11.26 11.03 11.51 100 11.2 11
2019-08-16 04:00:00 0 6816 10.89 10.76 11.1 100 10.8 10.7
2019-08-16 05:00:00 0 6826 11.92 11.26 12.12 100 11.8 11.2
2019-08-16 06:00:00 0 6806 11.93 11.89 12.03 100 11.9 11.8
2019-08-16 07:00:00 0 6854 12.59 12.06 13.32 100 12.5 12
2019-08-16 08:00:00 0 6844 14.11 13.38 14.61 100 14 13.3
2019-08-16 09:00:00 0 6874 17.34 15.21 19.67 100 17.3 15.2
2019-08-16 10:00:00 0 6972 21.29 19.62 23.1 98.33 20.9 19.6
2019-08-16 11:00:00 0 7088 22.02 20.62 22.88 99.03 21.7 20.6
2019-08-16 12:00:00 0 7166 23.72 22.79 24.48 89.63 21.7 21.2
2019-08-16 13:00:00 0 7206 24.72 23.03 25.64 84.72 21.8 21
2019-08-16 14:00:00 0 7196 25.65 24.16 26.5 77.01 21.1 19.8
2019-08-16 15:00:00 0 7186 26.33 25.88 27.13 70.11 20.2 19.2
2019-08-16 16:00:00 0 7216 25.81 25.14 26.42 69.42 19.6 18.7
2019-08-16 17:00:00 0 7148 25.85 25.18 26.28 67.4 19.1 18.8
2019-08-16 18:00:00 0 7010 24.35 23.97 25.05 71.93 18.8 18.4
2019-08-16 19:00:00 0 6922 22.87 22.09 23.88 77.47 18.5 18.2
2019-08-16 20:00:00 0 6894 19.92 17.57 21.93 90.99 18.2 17.2
2019-08-16 21:00:00 0 6894 16.52 15.15 18.55 99.73 16.4 15.1
2019-08-16 22:00:00 0 6894 14.28 13.5 14.91 100 14.2 13.5
2019-08-16 23:00:00 0 6884 12.71 12.12 13.38 100 12.6 12.1
2019-08-17 00:00:00 0 6864 11.77 11.49 12.01 43.9 0
2019-08-17 01:00:00 0 6874 10.98 10.39 11.63 0.22 -7.2 0
2019-08-17 02:00:00 0 6864 10.39 10.28 10.55 0 0 0
2019-08-17 03:00:00 0 6864 10.33 10.01 10.65 0 0 0
2019-08-17 04:00:00 0 6864 9.76 9.44 10.25 0 0 0
2019-08-17 05:00:00 0 6874 9.3 8.92 9.7 0 0 0
2019-08-17 06:00:00 0 6854 9.2 8.85 9.96 0 0 0
2019-08-17 07:00:00 0 6874 11.6 10.13 12.55 0 0 0
2019-08-17 08:00:00 0 6914 14.18 12.34 17.38 0 0 0
2019-08-17 09:00:00 0 6922 19.5 17.18 21.78 29.88 0
2019-08-17 10:00:00 0 6982 22.27 21.09 24.09 41.04 7.6 0
2019-08-17 11:00:00 0 7080 24.25 22.97 25.4 70.25 18.3 16.6
2019-08-17 12:00:00 0 7158 25.3 24.49 26.68 65.51 18.1 17.4
2019-08-17 13:00:00 0 7196 26.47 25.48 27.41 61.69 18.3 17.3
2019-08-17 14:00:00 0 7148 26.9 26.58 27.27 57.2 17.5 17
2019-08-17 15:00:00 0 7128 27.7 26.65 28.44 56.11 17.9 17.6
2019-08-17 16:00:00 0 7158 27.17 26.13 27.72 0 0 0
2019-08-17 17:00:00 0 7098 26.95 26.08 27.7 0 0 0
2019-08-17 18:00:00 0 7000 25.38 25.01 25.58 0 0 0
2019-08-17 19:00:00 0 6922 23.52 22.21 24.87 0 0 0